sensor_id;sensor_type;location;lat;lon;timestamp;P1;durP1;ratioP1;P2;durP2;ratioP2
12259;SDS011;6192;47.742;9.262;2022-09-29T00:01:00;1.97;;;1.87;;
12259;SDS011;6192;47.742;9.262;2022-09-29T00:03:29;2.80;;;1.73;;
12259;SDS011;6192;47.742;9.262;2022-09-29T00:05:56;1.73;;;1.20;;
12259;SDS011;6192;47.742;9.262;2022-09-29T00:08:25;2.27;;;1.57;;
12259;SDS011;6192;47.742;9.262;2022-09-29T00:10:53;1.80;;;1.50;;
12259;SDS011;6192;47.742;9.262;2022-09-29T00:13:21;1.63;;;1.53;;
12259;SDS011;6192;47.742;9.262;2022-09-29T00:15:55;5.10;;;1.90;;
12259;SDS011;6192;47.742;9.262;2022-09-29T00:18:24;1.67;;;1.50;;
12259;SDS011;6192;47.742;9.262;2022-09-29T00:20:55;1.90;;;1.60;;
12259;SDS011;6192;47.742;9.262;2022-09-29T00:23:30;2.33;;;1.70;;
12259;SDS011;6192;47.742;9.262;2022-09-29T00:25:58;1.70;;;1.60;;
12259;SDS011;6192;47.742;9.262;2022-09-29T00:28:26;1.73;;;1.60;;
12259;SDS011;6192;47.742;9.262;2022-09-29T00:30:53;1.97;;;1.80;;
12259;SDS011;6192;47.742;9.262;2022-09-29T00:33:20;3.17;;;1.80;;
12259;SDS011;6192;47.742;9.262;2022-09-29T00:35:54;2.20;;;1.80;;
12259;SDS011;6192;47.742;9.262;2022-09-29T00:38:26;2.50;;;2.30;;
12259;SDS011;6192;47.742;9.262;2022-09-29T00:40:54;3.77;;;1.70;;
12259;SDS011;6192;47.742;9.262;2022-09-29T00:44:05;1.90;;;1.60;;
12259;SDS011;6192;47.742;9.262;2022-09-29T00:46:28;1.90;;;1.30;;
12259;SDS011;6192;47.742;9.262;2022-09-29T00:49:09;1.60;;;1.50;;
12259;SDS011;6192;47.742;9.262;2022-09-29T00:51:50;1.30;;;1.20;;
12259;SDS011;6192;47.742;9.262;2022-09-29T00:54:21;2.77;;;1.40;;
12259;SDS011;6192;47.742;9.262;2022-09-29T00:56:53;2.20;;;1.50;;
12259;SDS011;6192;47.742;9.262;2022-09-29T00:59:24;2.33;;;1.53;;
12259;SDS011;6192;47.742;9.262;2022-09-29T01:01:57;1.63;;;1.30;;
12259;SDS011;6192;47.742;9.262;2022-09-29T01:04:25;1.97;;;1.40;;
12259;SDS011;6192;47.742;9.262;2022-09-29T01:06:53;1.63;;;1.53;;
12259;SDS011;6192;47.742;9.262;2022-09-29T01:09:24;1.93;;;1.63;;
12259;SDS011;6192;47.742;9.262;2022-09-29T01:11:54;1.77;;;1.67;;
12259;SDS011;6192;47.742;9.262;2022-09-29T01:14:24;1.60;;;1.40;;
12259;SDS011;6192;47.742;9.262;2022-09-29T01:16:53;2.00;;;1.30;;
12259;SDS011;6192;47.742;9.262;2022-09-29T01:19:39;1.60;;;1.30;;
12259;SDS011;6192;47.742;9.262;2022-09-29T01:31:10;2.13;;;1.80;;
12259;SDS011;6192;47.742;9.262;2022-09-29T01:37:23;2.60;;;1.40;;
12259;SDS011;6192;47.742;9.262;2022-09-29T01:40:15;1.87;;;1.60;;
12259;SDS011;6192;47.742;9.262;2022-09-29T01:43:06;1.73;;;1.50;;
12259;SDS011;6192;47.742;9.262;2022-09-29T01:45:39;1.40;;;1.30;;
12259;SDS011;6192;47.742;9.262;2022-09-29T01:48:10;2.03;;;1.57;;
12259;SDS011;6192;47.742;9.262;2022-09-29T01:50:44;2.97;;;1.60;;
12259;SDS011;6192;47.742;9.262;2022-09-29T01:53:19;2.00;;;1.37;;
12259;SDS011;6192;47.742;9.262;2022-09-29T01:55:52;1.50;;;1.40;;
12259;SDS011;6192;47.742;9.262;2022-09-29T01:58:32;4.20;;;1.90;;
12259;SDS011;6192;47.742;9.262;2022-09-29T02:01:05;4.10;;;2.07;;
12259;SDS011;6192;47.742;9.262;2022-09-29T02:03:39;1.90;;;1.67;;
12259;SDS011;6192;47.742;9.262;2022-09-29T02:06:13;1.40;;;1.30;;
12259;SDS011;6192;47.742;9.262;2022-09-29T02:08:55;2.20;;;1.47;;
12259;SDS011;6192;47.742;9.262;2022-09-29T02:11:24;2.07;;;1.30;;
12259;SDS011;6192;47.742;9.262;2022-09-29T02:14:00;1.57;;;1.40;;
12259;SDS011;6192;47.742;9.262;2022-09-29T02:16:55;1.40;;;1.30;;
12259;SDS011;6192;47.742;9.262;2022-09-29T02:19:51;1.43;;;1.33;;
12259;SDS011;6192;47.742;9.262;2022-09-29T02:22:18;2.03;;;1.83;;
12259;SDS011;6192;47.742;9.262;2022-09-29T02:24:46;2.13;;;1.90;;
12259;SDS011;6192;47.742;9.262;2022-09-29T02:27:17;2.33;;;1.60;;
12259;SDS011;6192;47.742;9.262;2022-09-29T02:29:44;2.00;;;1.80;;
12259;SDS011;6192;47.742;9.262;2022-09-29T02:32:11;3.67;;;1.73;;
12259;SDS011;6192;47.742;9.262;2022-09-29T02:34:40;1.80;;;1.70;;
12259;SDS011;6192;47.742;9.262;2022-09-29T02:51:12;1.60;;;1.50;;
12259;SDS011;6192;47.742;9.262;2022-09-29T02:59:20;4.03;;;2.43;;
12259;SDS011;6192;47.742;9.262;2022-09-29T03:01:53;1.77;;;1.50;;
12259;SDS011;6192;47.742;9.262;2022-09-29T03:04:23;1.63;;;1.50;;
12259;SDS011;6192;47.742;9.262;2022-09-29T03:06:52;2.47;;;1.60;;
12259;SDS011;6192;47.742;9.262;2022-09-29T03:09:19;3.20;;;1.63;;
12259;SDS011;6192;47.742;9.262;2022-09-29T03:11:46;1.87;;;1.77;;
12259;SDS011;6192;47.742;9.262;2022-09-29T03:14:13;2.13;;;1.93;;
12259;SDS011;6192;47.742;9.262;2022-09-29T03:16:40;1.90;;;1.70;;
12259;SDS011;6192;47.742;9.262;2022-09-29T03:19:08;2.50;;;1.40;;
12259;SDS011;6192;47.742;9.262;2022-09-29T03:21:35;2.60;;;1.60;;
12259;SDS011;6192;47.742;9.262;2022-09-29T03:24:02;1.43;;;1.33;;
12259;SDS011;6192;47.742;9.262;2022-09-29T03:26:29;2.90;;;1.70;;
12259;SDS011;6192;47.742;9.262;2022-09-29T03:28:56;1.80;;;1.70;;
12259;SDS011;6192;47.742;9.262;2022-09-29T03:31:23;1.50;;;1.40;;
12259;SDS011;6192;47.742;9.262;2022-09-29T03:33:50;2.60;;;2.20;;
12259;SDS011;6192;47.742;9.262;2022-09-29T03:36:17;4.13;;;3.40;;
12259;SDS011;6192;47.742;9.262;2022-09-29T03:38:43;1.80;;;1.70;;
12259;SDS011;6192;47.742;9.262;2022-09-29T03:41:12;1.60;;;1.50;;
12259;SDS011;6192;47.742;9.262;2022-09-29T03:43:39;2.47;;;1.90;;
12259;SDS011;6192;47.742;9.262;2022-09-29T03:46:06;3.83;;;3.40;;
12259;SDS011;6192;47.742;9.262;2022-09-29T03:48:33;2.10;;;2.00;;
12259;SDS011;6192;47.742;9.262;2022-09-29T03:51:00;2.73;;;1.77;;
12259;SDS011;6192;47.742;9.262;2022-09-29T03:53:28;2.10;;;1.90;;
12259;SDS011;6192;47.742;9.262;2022-09-29T03:55:56;1.93;;;1.50;;
12259;SDS011;6192;47.742;9.262;2022-09-29T03:58:23;2.17;;;1.90;;
12259;SDS011;6192;47.742;9.262;2022-09-29T04:00:50;1.87;;;1.70;;
12259;SDS011;6192;47.742;9.262;2022-09-29T04:03:17;2.43;;;1.77;;
12259;SDS011;6192;47.742;9.262;2022-09-29T04:05:45;2.40;;;1.90;;
12259;SDS011;6192;47.742;9.262;2022-09-29T04:08:13;2.17;;;1.97;;
12259;SDS011;6192;47.742;9.262;2022-09-29T04:10:40;1.80;;;1.70;;
12259;SDS011;6192;47.742;9.262;2022-09-29T04:13:07;2.10;;;1.90;;
12259;SDS011;6192;47.742;9.262;2022-09-29T04:15:34;2.20;;;2.00;;
12259;SDS011;6192;47.742;9.262;2022-09-29T04:18:01;2.50;;;1.90;;
12259;SDS011;6192;47.742;9.262;2022-09-29T04:20:28;1.70;;;1.60;;
12259;SDS011;6192;47.742;9.262;2022-09-29T04:22:55;2.07;;;1.87;;
12259;SDS011;6192;47.742;9.262;2022-09-29T04:25:22;2.20;;;1.90;;
12259;SDS011;6192;47.742;9.262;2022-09-29T04:27:49;2.30;;;1.97;;
12259;SDS011;6192;47.742;9.262;2022-09-29T04:30:16;2.77;;;2.57;;
12259;SDS011;6192;47.742;9.262;2022-09-29T04:32:43;2.37;;;2.03;;
12259;SDS011;6192;47.742;9.262;2022-09-29T04:35:10;2.07;;;1.83;;
12259;SDS011;6192;47.742;9.262;2022-09-29T04:37:37;2.30;;;1.90;;
12259;SDS011;6192;47.742;9.262;2022-09-29T04:40:04;2.07;;;1.80;;
12259;SDS011;6192;47.742;9.262;2022-09-29T04:42:32;3.60;;;2.40;;
12259;SDS011;6192;47.742;9.262;2022-09-29T04:44:59;2.83;;;2.63;;
12259;SDS011;6192;47.742;9.262;2022-09-29T04:47:26;2.37;;;2.00;;
12259;SDS011;6192;47.742;9.262;2022-09-29T04:49:52;2.23;;;2.10;;
12259;SDS011;6192;47.742;9.262;2022-09-29T04:52:19;2.57;;;2.37;;
12259;SDS011;6192;47.742;9.262;2022-09-29T04:54:46;4.23;;;3.80;;
12259;SDS011;6192;47.742;9.262;2022-09-29T04:57:13;2.87;;;2.00;;
12259;SDS011;6192;47.742;9.262;2022-09-29T04:59:40;2.07;;;1.70;;
12259;SDS011;6192;47.742;9.262;2022-09-29T05:02:07;2.63;;;2.43;;
12259;SDS011;6192;47.742;9.262;2022-09-29T05:04:34;2.20;;;2.00;;
12259;SDS011;6192;47.742;9.262;2022-09-29T05:07:00;3.47;;;2.13;;
12259;SDS011;6192;47.742;9.262;2022-09-29T05:09:28;3.10;;;2.47;;
12259;SDS011;6192;47.742;9.262;2022-09-29T05:11:59;4.60;;;4.10;;
12259;SDS011;6192;47.742;9.262;2022-09-29T05:14:26;8.10;;;6.77;;
12259;SDS011;6192;47.742;9.262;2022-09-29T05:16:53;6.17;;;5.23;;
12259;SDS011;6192;47.742;9.262;2022-09-29T05:19:21;4.20;;;3.80;;
12259;SDS011;6192;47.742;9.262;2022-09-29T05:21:48;4.53;;;4.10;;
12259;SDS011;6192;47.742;9.262;2022-09-29T05:24:14;3.33;;;3.03;;
12259;SDS011;6192;47.742;9.262;2022-09-29T05:26:41;2.50;;;2.30;;
12259;SDS011;6192;47.742;9.262;2022-09-29T05:29:08;3.30;;;3.00;;
12259;SDS011;6192;47.742;9.262;2022-09-29T05:31:35;2.80;;;2.50;;
12259;SDS011;6192;47.742;9.262;2022-09-29T05:34:02;3.63;;;3.30;;
12259;SDS011;6192;47.742;9.262;2022-09-29T05:36:29;3.00;;;2.63;;
12259;SDS011;6192;47.742;9.262;2022-09-29T05:38:56;2.83;;;2.07;;
12259;SDS011;6192;47.742;9.262;2022-09-29T05:41:23;2.87;;;2.60;;
12259;SDS011;6192;47.742;9.262;2022-09-29T05:43:50;3.23;;;2.77;;
12259;SDS011;6192;47.742;9.262;2022-09-29T05:46:19;2.47;;;2.27;;
12259;SDS011;6192;47.742;9.262;2022-09-29T05:48:47;3.43;;;3.10;;
12259;SDS011;6192;47.742;9.262;2022-09-29T05:51:17;3.00;;;2.80;;
12259;SDS011;6192;47.742;9.262;2022-09-29T05:53:48;2.87;;;2.40;;
12259;SDS011;6192;47.742;9.262;2022-09-29T05:56:17;2.70;;;2.50;;
12259;SDS011;6192;47.742;9.262;2022-09-29T05:58:45;2.60;;;2.40;;
12259;SDS011;6192;47.742;9.262;2022-09-29T06:01:19;3.33;;;3.03;;
12259;SDS011;6192;47.742;9.262;2022-09-29T06:03:47;4.57;;;2.60;;
12259;SDS011;6192;47.742;9.262;2022-09-29T06:06:18;2.50;;;2.13;;
12259;SDS011;6192;47.742;9.262;2022-09-29T06:08:46;3.13;;;2.50;;
12259;SDS011;6192;47.742;9.262;2022-09-29T06:11:18;3.10;;;2.80;;
12259;SDS011;6192;47.742;9.262;2022-09-29T06:13:47;2.57;;;2.37;;
12259;SDS011;6192;47.742;9.262;2022-09-29T06:16:16;3.03;;;2.10;;
12259;SDS011;6192;47.742;9.262;2022-09-29T06:18:45;2.20;;;1.97;;
12259;SDS011;6192;47.742;9.262;2022-09-29T06:21:14;2.20;;;2.00;;
12259;SDS011;6192;47.742;9.262;2022-09-29T06:23:43;2.00;;;1.80;;
12259;SDS011;6192;47.742;9.262;2022-09-29T06:26:11;2.90;;;2.40;;
12259;SDS011;6192;47.742;9.262;2022-09-29T06:28:44;3.60;;;2.53;;
12259;SDS011;6192;47.742;9.262;2022-09-29T06:31:12;2.83;;;2.03;;
12259;SDS011;6192;47.742;9.262;2022-09-29T06:33:41;4.33;;;1.93;;
12259;SDS011;6192;47.742;9.262;2022-09-29T06:38:56;3.30;;;3.00;;
12259;SDS011;6192;47.742;9.262;2022-09-29T06:41:23;4.63;;;3.57;;
12259;SDS011;6192;47.742;9.262;2022-09-29T06:43:50;3.10;;;2.80;;
12259;SDS011;6192;47.742;9.262;2022-09-29T06:46:17;2.70;;;2.50;;
12259;SDS011;6192;47.742;9.262;2022-09-29T06:48:44;3.53;;;2.87;;
12259;SDS011;6192;47.742;9.262;2022-09-29T06:51:11;3.47;;;3.17;;
12259;SDS011;6192;47.742;9.262;2022-09-29T06:53:40;4.10;;;3.70;;
12259;SDS011;6192;47.742;9.262;2022-09-29T06:56:07;4.30;;;3.50;;
12259;SDS011;6192;47.742;9.262;2022-09-29T06:58:34;3.20;;;2.90;;
12259;SDS011;6192;47.742;9.262;2022-09-29T07:01:02;4.00;;;3.37;;
12259;SDS011;6192;47.742;9.262;2022-09-29T07:03:31;4.03;;;3.23;;
12259;SDS011;6192;47.742;9.262;2022-09-29T07:06:02;4.00;;;3.70;;
12259;SDS011;6192;47.742;9.262;2022-09-29T07:08:45;5.00;;;4.50;;
12259;SDS011;6192;47.742;9.262;2022-09-29T07:11:12;4.83;;;4.33;;
12259;SDS011;6192;47.742;9.262;2022-09-29T07:13:40;4.50;;;4.10;;
12259;SDS011;6192;47.742;9.262;2022-09-29T07:16:08;10.73;;;7.93;;
12259;SDS011;6192;47.742;9.262;2022-09-29T07:18:37;7.67;;;5.17;;
12259;SDS011;6192;47.742;9.262;2022-09-29T07:21:13;7.03;;;6.33;;
12259;SDS011;6192;47.742;9.262;2022-09-29T07:23:43;6.83;;;6.13;;
12259;SDS011;6192;47.742;9.262;2022-09-29T07:26:11;6.03;;;5.43;;
12259;SDS011;6192;47.742;9.262;2022-09-29T07:28:39;6.17;;;5.57;;
12259;SDS011;6192;47.742;9.262;2022-09-29T07:31:06;8.43;;;7.17;;
12259;SDS011;6192;47.742;9.262;2022-09-29T07:33:41;7.77;;;6.50;;
12259;SDS011;6192;47.742;9.262;2022-09-29T07:36:12;8.87;;;6.93;;
12259;SDS011;6192;47.742;9.262;2022-09-29T07:38:40;4.73;;;4.30;;
12259;SDS011;6192;47.742;9.262;2022-09-29T07:41:08;5.30;;;4.80;;
12259;SDS011;6192;47.742;9.262;2022-09-29T07:43:37;5.33;;;4.20;;
12259;SDS011;6192;47.742;9.262;2022-09-29T07:46:05;5.33;;;4.60;;
12259;SDS011;6192;47.742;9.262;2022-09-29T07:48:33;5.00;;;3.90;;
12259;SDS011;6192;47.742;9.262;2022-09-29T07:51:05;4.23;;;3.37;;
12259;SDS011;6192;47.742;9.262;2022-09-29T07:53:35;3.73;;;3.07;;
12259;SDS011;6192;47.742;9.262;2022-09-29T07:56:04;5.40;;;3.70;;
12259;SDS011;6192;47.742;9.262;2022-09-29T07:58:33;3.23;;;2.77;;
12259;SDS011;6192;47.742;9.262;2022-09-29T08:01:00;3.40;;;3.10;;
12259;SDS011;6192;47.742;9.262;2022-09-29T08:03:31;1.90;;;1.70;;
12259;SDS011;6192;47.742;9.262;2022-09-29T08:05:58;2.20;;;1.93;;
12259;SDS011;6192;47.742;9.262;2022-09-29T08:08:25;1.83;;;1.60;;
12259;SDS011;6192;47.742;9.262;2022-09-29T08:11:00;1.50;;;1.40;;
12259;SDS011;6192;47.742;9.262;2022-09-29T08:13:28;1.30;;;1.20;;
12259;SDS011;6192;47.742;9.262;2022-09-29T08:15:57;1.30;;;1.20;;
12259;SDS011;6192;47.742;9.262;2022-09-29T08:18:25;3.23;;;1.77;;
12259;SDS011;6192;47.742;9.262;2022-09-29T08:20:56;3.33;;;1.50;;
12259;SDS011;6192;47.742;9.262;2022-09-29T08:23:29;1.70;;;1.60;;
12259;SDS011;6192;47.742;9.262;2022-09-29T08:26:03;2.37;;;1.87;;
12259;SDS011;6192;47.742;9.262;2022-09-29T08:28:32;2.53;;;1.70;;
12259;SDS011;6192;47.742;9.262;2022-09-29T08:31:06;1.97;;;1.80;;
12259;SDS011;6192;47.742;9.262;2022-09-29T08:33:35;3.80;;;2.57;;
12259;SDS011;6192;47.742;9.262;2022-09-29T08:36:02;4.90;;;3.20;;
12259;SDS011;6192;47.742;9.262;2022-09-29T08:38:42;2.90;;;2.00;;
12259;SDS011;6192;47.742;9.262;2022-09-29T08:41:19;2.17;;;1.97;;
12259;SDS011;6192;47.742;9.262;2022-09-29T08:43:55;4.70;;;2.57;;
12259;SDS011;6192;47.742;9.262;2022-09-29T08:46:34;2.30;;;1.83;;
12259;SDS011;6192;47.742;9.262;2022-09-29T08:49:08;2.23;;;1.80;;
12259;SDS011;6192;47.742;9.262;2022-09-29T08:51:57;2.47;;;1.80;;
12259;SDS011;6192;47.742;9.262;2022-09-29T08:54:42;2.33;;;1.87;;
12259;SDS011;6192;47.742;9.262;2022-09-29T08:57:15;2.13;;;1.90;;
12259;SDS011;6192;47.742;9.262;2022-09-29T08:59:54;1.77;;;1.60;;
12259;SDS011;6192;47.742;9.262;2022-09-29T09:02:30;2.37;;;1.60;;
12259;SDS011;6192;47.742;9.262;2022-09-29T09:11:04;1.53;;;1.10;;
12259;SDS011;6192;47.742;9.262;2022-09-29T09:13:48;1.20;;;1.10;;
12259;SDS011;6192;47.742;9.262;2022-09-29T09:16:55;1.70;;;0.90;;
12259;SDS011;6192;47.742;9.262;2022-09-29T09:22:51;1.27;;;1.00;;
12259;SDS011;6192;47.742;9.262;2022-09-29T09:25:30;1.10;;;1.00;;
12259;SDS011;6192;47.742;9.262;2022-09-29T09:28:13;2.17;;;1.27;;
12259;SDS011;6192;47.742;9.262;2022-09-29T09:30:44;1.27;;;0.90;;
12259;SDS011;6192;47.742;9.262;2022-09-29T09:35:59;1.70;;;1.10;;
12259;SDS011;6192;47.742;9.262;2022-09-29T09:38:40;1.93;;;1.10;;
12259;SDS011;6192;47.742;9.262;2022-09-29T09:41:16;2.43;;;1.27;;
12259;SDS011;6192;47.742;9.262;2022-09-29T09:44:32;1.73;;;1.20;;
12259;SDS011;6192;47.742;9.262;2022-09-29T09:46:39;4.17;;;2.13;;
12259;SDS011;6192;47.742;9.262;2022-09-29T09:49:21;5.33;;;2.17;;
12259;SDS011;6192;47.742;9.262;2022-09-29T09:51:57;1.47;;;1.30;;
12259;SDS011;6192;47.742;9.262;2022-09-29T09:54:33;23.37;;;11.07;;
12259;SDS011;6192;47.742;9.262;2022-09-29T10:00:12;2.07;;;1.67;;
12259;SDS011;6192;47.742;9.262;2022-09-29T10:05:25;2.17;;;1.67;;
12259;SDS011;6192;47.742;9.262;2022-09-29T10:07:57;3.87;;;2.70;;
12259;SDS011;6192;47.742;9.262;2022-09-29T10:10:26;1.60;;;1.30;;
12259;SDS011;6192;47.742;9.262;2022-09-29T10:13:00;1.40;;;1.30;;
12259;SDS011;6192;47.742;9.262;2022-09-29T10:18:00;4.93;;;2.57;;
12259;SDS011;6192;47.742;9.262;2022-09-29T10:20:52;2.47;;;1.83;;
12259;SDS011;6192;47.742;9.262;2022-09-29T10:25:53;3.50;;;2.23;;
12259;SDS011;6192;47.742;9.262;2022-09-29T10:28:28;3.63;;;1.27;;
12259;SDS011;6192;47.742;9.262;2022-09-29T10:31:14;2.77;;;1.87;;
12259;SDS011;6192;47.742;9.262;2022-09-29T10:33:54;9.37;;;5.60;;
12259;SDS011;6192;47.742;9.262;2022-09-29T10:36:25;1.37;;;1.20;;
12259;SDS011;6192;47.742;9.262;2022-09-29T10:39:00;3.20;;;1.43;;
12259;SDS011;6192;47.742;9.262;2022-09-29T10:41:29;1.20;;;1.10;;
12259;SDS011;6192;47.742;9.262;2022-09-29T10:44:19;1.43;;;1.10;;
12259;SDS011;6192;47.742;9.262;2022-09-29T10:46:49;1.33;;;1.23;;
12259;SDS011;6192;47.742;9.262;2022-09-29T10:49:20;1.90;;;1.40;;
12259;SDS011;6192;47.742;9.262;2022-09-29T10:54:24;2.63;;;1.30;;
12259;SDS011;6192;47.742;9.262;2022-09-29T10:56:53;2.57;;;1.20;;
12259;SDS011;6192;47.742;9.262;2022-09-29T10:59:21;1.33;;;1.20;;
12259;SDS011;6192;47.742;9.262;2022-09-29T11:01:59;2.20;;;1.10;;
12259;SDS011;6192;47.742;9.262;2022-09-29T11:04:28;1.63;;;1.20;;
12259;SDS011;6192;47.742;9.262;2022-09-29T11:07:20;5.03;;;4.47;;
12259;SDS011;6192;47.742;9.262;2022-09-29T11:09:47;1.97;;;1.73;;
12259;SDS011;6192;47.742;9.262;2022-09-29T11:12:29;6.90;;;5.97;;
12259;SDS011;6192;47.742;9.262;2022-09-29T11:14:59;3.40;;;2.60;;
12259;SDS011;6192;47.742;9.262;2022-09-29T11:17:28;2.57;;;1.40;;
12259;SDS011;6192;47.742;9.262;2022-09-29T11:20:10;2.47;;;2.27;;
12259;SDS011;6192;47.742;9.262;2022-09-29T11:28:25;2.30;;;1.60;;
12259;SDS011;6192;47.742;9.262;2022-09-29T11:31:12;1.53;;;1.30;;
12259;SDS011;6192;47.742;9.262;2022-09-29T11:34:07;1.57;;;1.20;;
12259;SDS011;6192;47.742;9.262;2022-09-29T11:36:55;2.27;;;1.37;;
12259;SDS011;6192;47.742;9.262;2022-09-29T11:42:17;1.33;;;1.20;;
12259;SDS011;6192;47.742;9.262;2022-09-29T11:44:57;1.90;;;1.60;;
12259;SDS011;6192;47.742;9.262;2022-09-29T11:50:15;1.60;;;1.40;;
12259;SDS011;6192;47.742;9.262;2022-09-29T11:58:50;3.30;;;2.57;;
12259;SDS011;6192;47.742;9.262;2022-09-29T12:01:47;2.73;;;1.70;;
12259;SDS011;6192;47.742;9.262;2022-09-29T12:04:56;3.07;;;2.07;;
12259;SDS011;6192;47.742;9.262;2022-09-29T12:07:43;3.37;;;2.67;;
12259;SDS011;6192;47.742;9.262;2022-09-29T12:11:03;2.03;;;1.60;;
12259;SDS011;6192;47.742;9.262;2022-09-29T12:20:57;1.87;;;1.60;;
12259;SDS011;6192;47.742;9.262;2022-09-29T12:23:26;1.37;;;1.27;;
12259;SDS011;6192;47.742;9.262;2022-09-29T12:25:57;1.30;;;1.10;;
12259;SDS011;6192;47.742;9.262;2022-09-29T12:28:33;1.40;;;1.13;;
12259;SDS011;6192;47.742;9.262;2022-09-29T12:31:09;1.93;;;1.10;;
12259;SDS011;6192;47.742;9.262;2022-09-29T12:33:46;1.20;;;1.10;;
12259;SDS011;6192;47.742;9.262;2022-09-29T12:47:45;1.60;;;1.10;;
12259;SDS011;6192;47.742;9.262;2022-09-29T12:50:28;1.33;;;0.90;;
12259;SDS011;6192;47.742;9.262;2022-09-29T13:01:34;1.17;;;1.00;;
12259;SDS011;6192;47.742;9.262;2022-09-29T13:09:40;1.77;;;1.10;;
12259;SDS011;6192;47.742;9.262;2022-09-29T13:12:26;0.90;;;0.90;;
12259;SDS011;6192;47.742;9.262;2022-09-29T13:20:32;1.17;;;1.07;;
12259;SDS011;6192;47.742;9.262;2022-09-29T13:23:05;1.33;;;1.00;;
12259;SDS011;6192;47.742;9.262;2022-09-29T13:25:52;1.57;;;1.00;;
12259;SDS011;6192;47.742;9.262;2022-09-29T13:28:37;1.77;;;1.00;;
12259;SDS011;6192;47.742;9.262;2022-09-29T13:31:12;1.20;;;1.10;;
12259;SDS011;6192;47.742;9.262;2022-09-29T13:33:47;1.00;;;1.00;;
12259;SDS011;6192;47.742;9.262;2022-09-29T13:36:31;1.10;;;1.00;;
12259;SDS011;6192;47.742;9.262;2022-09-29T13:39:17;3.50;;;1.00;;
12259;SDS011;6192;47.742;9.262;2022-09-29T13:41:47;1.10;;;1.00;;
12259;SDS011;6192;47.742;9.262;2022-09-29T13:44:20;1.03;;;0.93;;
12259;SDS011;6192;47.742;9.262;2022-09-29T13:46:49;1.83;;;0.97;;
12259;SDS011;6192;47.742;9.262;2022-09-29T13:52:00;0.90;;;0.90;;
12259;SDS011;6192;47.742;9.262;2022-09-29T13:54:40;1.77;;;1.20;;
12259;SDS011;6192;47.742;9.262;2022-09-29T13:59:38;1.20;;;1.00;;
12259;SDS011;6192;47.742;9.262;2022-09-29T14:04:54;1.07;;;0.97;;
12259;SDS011;6192;47.742;9.262;2022-09-29T14:07:42;1.20;;;1.10;;
12259;SDS011;6192;47.742;9.262;2022-09-29T14:15:40;1.30;;;1.10;;
12259;SDS011;6192;47.742;9.262;2022-09-29T14:18:16;1.30;;;1.20;;
12259;SDS011;6192;47.742;9.262;2022-09-29T14:21:02;1.10;;;1.10;;
12259;SDS011;6192;47.742;9.262;2022-09-29T14:29:15;2.27;;;1.20;;
12259;SDS011;6192;47.742;9.262;2022-09-29T14:31:47;1.17;;;1.07;;
12259;SDS011;6192;47.742;9.262;2022-09-29T14:34:17;2.30;;;1.67;;
12259;SDS011;6192;47.742;9.262;2022-09-29T14:36:46;2.53;;;1.40;;
12259;SDS011;6192;47.742;9.262;2022-09-29T14:39:15;2.00;;;1.20;;
12259;SDS011;6192;47.742;9.262;2022-09-29T14:41:57;1.63;;;1.20;;
12259;SDS011;6192;47.742;9.262;2022-09-29T14:44:25;1.10;;;1.00;;
12259;SDS011;6192;47.742;9.262;2022-09-29T15:01:24;2.57;;;1.30;;
12259;SDS011;6192;47.742;9.262;2022-09-29T15:04:13;1.70;;;1.20;;
12259;SDS011;6192;47.742;9.262;2022-09-29T15:06:45;1.23;;;1.00;;
12259;SDS011;6192;47.742;9.262;2022-09-29T15:09:20;1.93;;;1.10;;
12259;SDS011;6192;47.742;9.262;2022-09-29T15:11:53;1.40;;;1.10;;
12259;SDS011;6192;47.742;9.262;2022-09-29T15:14:27;1.67;;;1.20;;
12259;SDS011;6192;47.742;9.262;2022-09-29T15:17:26;1.73;;;1.30;;
12259;SDS011;6192;47.742;9.262;2022-09-29T15:20:22;2.20;;;1.30;;
12259;SDS011;6192;47.742;9.262;2022-09-29T15:23:10;1.70;;;1.50;;
12259;SDS011;6192;47.742;9.262;2022-09-29T15:25:41;1.30;;;1.20;;
12259;SDS011;6192;47.742;9.262;2022-09-29T15:28:14;2.17;;;1.30;;
12259;SDS011;6192;47.742;9.262;2022-09-29T15:30:43;2.67;;;1.40;;
12259;SDS011;6192;47.742;9.262;2022-09-29T15:33:18;1.93;;;1.40;;
12259;SDS011;6192;47.742;9.262;2022-09-29T15:35:55;1.63;;;1.33;;
12259;SDS011;6192;47.742;9.262;2022-09-29T15:40:54;1.40;;;1.30;;
12259;SDS011;6192;47.742;9.262;2022-09-29T15:43:25;1.30;;;1.20;;
12259;SDS011;6192;47.742;9.262;2022-09-29T15:46:00;4.43;;;3.77;;
12259;SDS011;6192;47.742;9.262;2022-09-29T15:48:37;2.90;;;2.60;;
12259;SDS011;6192;47.742;9.262;2022-09-29T15:51:04;2.00;;;1.80;;
12259;SDS011;6192;47.742;9.262;2022-09-29T15:53:42;1.30;;;1.20;;
12259;SDS011;6192;47.742;9.262;2022-09-29T15:56:12;1.33;;;1.10;;
12259;SDS011;6192;47.742;9.262;2022-09-29T15:58:42;2.53;;;1.40;;
12259;SDS011;6192;47.742;9.262;2022-09-29T16:01:11;2.07;;;1.80;;
12259;SDS011;6192;47.742;9.262;2022-09-29T16:03:47;2.17;;;1.70;;
12259;SDS011;6192;47.742;9.262;2022-09-29T16:06:20;5.60;;;2.73;;
12259;SDS011;6192;47.742;9.262;2022-09-29T16:09:01;2.37;;;2.00;;
12259;SDS011;6192;47.742;9.262;2022-09-29T16:11:34;5.77;;;1.87;;
12259;SDS011;6192;47.742;9.262;2022-09-29T16:14:09;3.63;;;2.10;;
12259;SDS011;6192;47.742;9.262;2022-09-29T16:16:44;2.47;;;1.40;;
12259;SDS011;6192;47.742;9.262;2022-09-29T16:19:21;1.37;;;1.27;;
12259;SDS011;6192;47.742;9.262;2022-09-29T16:21:53;1.47;;;1.33;;
12259;SDS011;6192;47.742;9.262;2022-09-29T16:24:29;1.50;;;1.30;;
12259;SDS011;6192;47.742;9.262;2022-09-29T16:26:58;1.40;;;1.30;;
12259;SDS011;6192;47.742;9.262;2022-09-29T16:29:28;1.70;;;1.60;;
12259;SDS011;6192;47.742;9.262;2022-09-29T16:38:29;4.43;;;4.03;;
12259;SDS011;6192;47.742;9.262;2022-09-29T16:41:07;3.30;;;2.73;;
12259;SDS011;6192;47.742;9.262;2022-09-29T16:43:46;1.60;;;1.50;;
12259;SDS011;6192;47.742;9.262;2022-09-29T16:46:23;2.80;;;1.57;;
12259;SDS011;6192;47.742;9.262;2022-09-29T16:48:50;2.00;;;1.37;;
12259;SDS011;6192;47.742;9.262;2022-09-29T16:51:18;2.10;;;1.30;;
12259;SDS011;6192;47.742;9.262;2022-09-29T16:54:04;2.50;;;1.30;;
12259;SDS011;6192;47.742;9.262;2022-09-29T16:56:31;1.57;;;1.47;;
12259;SDS011;6192;47.742;9.262;2022-09-29T16:59:11;2.37;;;1.70;;
12259;SDS011;6192;47.742;9.262;2022-09-29T17:01:44;3.30;;;3.00;;
12259;SDS011;6192;47.742;9.262;2022-09-29T17:04:14;8.00;;;6.10;;
12259;SDS011;6192;47.742;9.262;2022-09-29T17:06:44;4.40;;;3.93;;
12259;SDS011;6192;47.742;9.262;2022-09-29T17:09:16;12.23;;;10.30;;
12259;SDS011;6192;47.742;9.262;2022-09-29T17:11:46;14.27;;;11.57;;
12259;SDS011;6192;47.742;9.262;2022-09-29T17:14:14;15.30;;;13.40;;
12259;SDS011;6192;47.742;9.262;2022-09-29T17:16:43;9.23;;;8.33;;
12259;SDS011;6192;47.742;9.262;2022-09-29T17:19:11;6.33;;;5.73;;
12259;SDS011;6192;47.742;9.262;2022-09-29T17:21:38;11.53;;;9.27;;
12259;SDS011;6192;47.742;9.262;2022-09-29T17:24:05;7.20;;;6.17;;
12259;SDS011;6192;47.742;9.262;2022-09-29T17:26:41;4.50;;;3.67;;
12259;SDS011;6192;47.742;9.262;2022-09-29T17:29:29;3.80;;;3.40;;
12259;SDS011;6192;47.742;9.262;2022-09-29T17:31:56;3.60;;;3.30;;
12259;SDS011;6192;47.742;9.262;2022-09-29T17:34:23;2.30;;;2.10;;
12259;SDS011;6192;47.742;9.262;2022-09-29T17:36:55;2.03;;;1.80;;
12259;SDS011;6192;47.742;9.262;2022-09-29T17:39:23;2.47;;;1.70;;
12259;SDS011;6192;47.742;9.262;2022-09-29T17:41:50;2.77;;;1.80;;
12259;SDS011;6192;47.742;9.262;2022-09-29T17:44:17;4.07;;;1.90;;
12259;SDS011;6192;47.742;9.262;2022-09-29T17:46:44;2.50;;;2.30;;
12259;SDS011;6192;47.742;9.262;2022-09-29T17:49:16;4.13;;;2.67;;
12259;SDS011;6192;47.742;9.262;2022-09-29T17:51:43;2.83;;;2.63;;
12259;SDS011;6192;47.742;9.262;2022-09-29T17:54:10;2.63;;;2.43;;
12259;SDS011;6192;47.742;9.262;2022-09-29T17:56:40;2.47;;;1.70;;
12259;SDS011;6192;47.742;9.262;2022-09-29T17:59:09;2.10;;;1.90;;
12259;SDS011;6192;47.742;9.262;2022-09-29T18:01:36;2.63;;;1.97;;
12259;SDS011;6192;47.742;9.262;2022-09-29T18:04:04;2.40;;;2.20;;
12259;SDS011;6192;47.742;9.262;2022-09-29T18:06:33;4.57;;;4.17;;
12259;SDS011;6192;47.742;9.262;2022-09-29T18:09:15;3.63;;;2.63;;
12259;SDS011;6192;47.742;9.262;2022-09-29T18:11:43;3.70;;;3.40;;